createdAt,value
2023-05-04T00:01:11.954Z,64.39
2023-05-04T00:04:14.328Z,64.57
2023-05-04T00:07:16.822Z,64.81
2023-05-04T00:10:19.504Z,64.31
2023-05-04T00:13:22.190Z,64.73
2023-05-04T00:16:24.475Z,64.27
2023-05-04T00:19:26.755Z,64.02
2023-05-04T00:22:29.049Z,64.38
2023-05-04T00:25:31.575Z,63.87
2023-05-04T00:28:33.853Z,63.98
2023-05-04T00:31:36.564Z,63.74
2023-05-04T00:34:39.084Z,62.67
2023-05-04T00:37:43.720Z,62.93
2023-05-04T00:40:46.064Z,62.87
2023-05-04T00:43:48.720Z,62.53
2023-05-04T00:46:52.965Z,62.41
2023-05-04T00:49:55.443Z,62.18
2023-05-04T00:53:00.619Z,61.71
2023-05-04T00:56:04.080Z,61.84
2023-05-04T00:59:06.372Z,61.12
2023-05-04T01:02:08.643Z,61.85
2023-05-04T01:05:12.582Z,61.34
2023-05-04T01:08:18.198Z,61.16
2023-05-04T01:11:22.600Z,62.06
2023-05-04T01:14:25.529Z,62.15
2023-05-04T01:17:27.906Z,61.81
2023-05-04T01:20:30.493Z,61.99
2023-05-04T01:23:32.746Z,62.05
2023-05-04T01:26:39.761Z,62.42
2023-05-04T01:30:03.845Z,61.92
2023-05-04T01:33:06.471Z,61.44
2023-05-04T01:36:09.010Z,61.59
2023-05-04T01:39:11.311Z,62.21
2023-05-04T01:42:13.561Z,62.25
2023-05-04T01:45:15.956Z,62.71
2023-05-04T01:48:18.458Z,62.97
2023-05-04T01:51:20.775Z,63.05
2023-05-04T01:54:23.034Z,63.88
2023-05-04T01:57:25.377Z,63.50
2023-05-04T02:00:28.546Z,62.95
2023-05-04T02:03:31.465Z,63.54
2023-05-04T02:06:33.964Z,63.39
2023-05-04T02:09:36.764Z,64.16
2023-05-04T02:12:39.291Z,63.82
2023-05-04T02:15:41.655Z,63.78
2023-05-04T02:18:43.929Z,63.69
2023-05-04T02:21:46.166Z,63.75
2023-05-04T02:24:49.520Z,63.05
2023-05-04T02:27:51.843Z,63.38
2023-05-04T02:30:54.078Z,63.21
2023-05-04T02:33:56.332Z,63.29
2023-05-04T02:36:58.603Z,63.67
2023-05-04T02:40:00.855Z,63.46
2023-05-04T02:43:04.736Z,63.65
2023-05-04T02:46:10.058Z,63.44
2023-05-04T02:49:12.290Z,64.15
2023-05-04T02:52:14.593Z,64.38
2023-05-04T02:55:17.051Z,63.17
2023-05-04T02:58:19.286Z,63.20
2023-05-04T03:01:21.615Z,62.55
2023-05-04T03:04:24.027Z,63.89
2023-05-04T03:07:26.824Z,61.80
2023-05-04T03:10:28.976Z,61.26
2023-05-04T03:13:31.255Z,61.46
2023-05-04T03:16:33.554Z,62.19
2023-05-04T03:19:37.419Z,61.56
2023-05-04T03:22:40.831Z,61.00
2023-05-04T03:25:43.630Z,61.32
2023-05-04T03:28:45.902Z,61.71
2023-05-04T03:31:49.048Z,62.20
2023-05-04T03:34:52.870Z,61.23
2023-05-04T03:37:57.382Z,60.64
2023-05-04T03:40:59.682Z,60.35
2023-05-04T03:44:02.159Z,59.98
2023-05-04T03:47:04.405Z,59.00
2023-05-04T03:50:07.457Z,59.41
2023-05-04T03:53:09.866Z,58.88
2023-05-04T03:56:12.107Z,59.29
2023-05-04T03:59:14.414Z,58.48
2023-05-04T04:02:17.278Z,58.71
2023-05-04T04:05:19.636Z,59.12
2023-05-04T04:08:23.657Z,58.66
2023-05-04T04:11:26.531Z,59.75
2023-05-04T04:14:29.019Z,60.03
2023-05-04T04:17:31.281Z,60.52
2023-05-04T04:20:33.520Z,59.71
2023-05-04T04:23:35.999Z,59.70
2023-05-04T04:26:38.349Z,60.10
2023-05-04T04:29:40.613Z,60.19
2023-05-04T04:32:42.944Z,60.01
2023-05-04T04:35:45.251Z,59.54
2023-05-04T04:38:47.701Z,58.91
2023-05-04T04:41:50.002Z,58.74
2023-05-04T04:44:52.407Z,58.08
2023-05-04T04:47:54.675Z,58.05
2023-05-04T04:50:57.356Z,56.09
2023-05-04T04:53:59.670Z,54.60
2023-05-04T04:57:04.044Z,53.66
2023-05-04T05:00:10.311Z,53.12
2023-05-04T05:03:12.870Z,52.37
2023-05-04T05:06:15.161Z,51.70
2023-05-04T05:09:17.436Z,50.19
2023-05-04T05:12:19.621Z,50.45
2023-05-04T05:15:21.878Z,50.47
2023-05-04T05:18:24.740Z,49.90
2023-05-04T05:21:26.889Z,49.58
2023-05-04T05:24:29.053Z,48.73
2023-05-04T05:27:33.063Z,47.90
2023-05-04T05:30:35.395Z,48.14
2023-05-04T05:33:38.722Z,48.03
2023-05-04T05:36:41.039Z,47.71
2023-05-04T05:39:43.339Z,47.81
2023-05-04T05:42:45.578Z,46.93
2023-05-04T05:45:48.717Z,46.90
2023-05-04T05:48:51.059Z,46.00
2023-05-04T05:51:53.305Z,46.39
2023-05-04T05:54:55.741Z,45.53
2023-05-04T05:57:58.064Z,45.05
2023-05-04T06:01:00.577Z,45.87
2023-05-04T06:04:03.273Z,46.38
2023-05-04T06:07:05.518Z,45.99
2023-05-04T06:10:08.834Z,45.89
2023-05-04T06:13:11.214Z,45.90
2023-05-04T06:16:14.455Z,45.86
2023-05-04T06:19:17.897Z,45.07
2023-05-04T06:22:20.337Z,44.64
2023-05-04T06:25:22.659Z,44.35
2023-05-04T06:28:24.881Z,43.08
2023-05-04T06:31:28.045Z,41.57
2023-05-04T06:34:30.407Z,38.67
2023-05-04T06:37:33.120Z,36.33
2023-05-04T06:40:35.360Z,33.84
2023-05-04T06:43:41.980Z,34.05
2023-05-04T06:46:44.254Z,32.87
2023-05-04T06:49:46.474Z,31.89
2023-05-04T06:52:48.699Z,31.29
2023-05-04T06:55:51.272Z,30.61
2023-05-04T06:58:53.534Z,30.01
2023-05-04T07:01:55.796Z,28.48
2023-05-04T07:04:58.020Z,27.05
2023-05-04T07:08:00.238Z,25.99
2023-05-04T07:11:02.721Z,24.47
2023-05-04T07:14:04.959Z,24.28
2023-05-04T07:17:09.654Z,23.92
2023-05-04T07:20:12.573Z,23.65
2023-05-04T07:23:14.847Z,23.11
2023-05-04T07:26:17.167Z,22.83
2023-05-04T07:29:19.409Z,22.69
2023-05-04T07:32:21.835Z,23.09
2023-05-04T07:35:24.115Z,23.85
2023-05-04T07:38:27.093Z,22.93
2023-05-04T07:41:29.350Z,22.97
2023-05-04T07:44:32.004Z,21.86
2023-05-04T07:47:34.884Z,22.07
2023-05-04T07:50:37.252Z,21.33
2023-05-04T07:53:39.450Z,20.87
2023-05-04T07:56:41.542Z,20.49
2023-05-04T07:59:43.775Z,21.21
2023-05-04T08:02:46.242Z,20.60
2023-05-04T08:05:48.639Z,20.03
2023-05-04T08:08:52.749Z,20.46
2023-05-04T08:11:55.320Z,20.19
2023-05-04T08:14:57.746Z,20.32
2023-05-04T08:17:59.946Z,20.50
2023-05-04T08:21:02.163Z,21.03
2023-05-04T08:24:04.461Z,21.79
2023-05-04T08:27:08.606Z,22.56
2023-05-04T08:30:11.991Z,24.21
2023-05-04T08:33:14.270Z,25.01
2023-05-04T08:36:16.570Z,25.55
2023-05-04T08:39:19.126Z,26.01
2023-05-04T08:42:31.940Z,26.96
2023-05-04T08:45:38.428Z,28.01
2023-05-04T08:48:42.999Z,28.25
2023-05-04T08:51:46.189Z,28.81
2023-05-04T08:54:48.894Z,28.46
2023-05-04T08:57:51.311Z,28.21
2023-05-04T09:00:54.014Z,28.46
2023-05-04T09:03:57.042Z,28.79
2023-05-04T09:06:59.457Z,28.36
2023-05-04T09:10:01.816Z,29.13
2023-05-04T09:13:04.210Z,28.99
2023-05-04T09:16:07.678Z,28.94
2023-05-04T09:19:20.369Z,29.73
2023-05-04T09:22:22.621Z,29.86
2023-05-04T09:25:25.234Z,29.86
2023-05-04T09:28:35.706Z,30.00
2023-05-04T09:31:48.504Z,30.67
2023-05-04T09:34:54.239Z,30.74
2023-05-04T09:37:57.977Z,31.28
2023-05-04T09:41:00.313Z,31.03
2023-05-04T09:44:04.604Z,30.34
2023-05-04T09:47:07.103Z,31.06
2023-05-04T09:50:18.332Z,31.73
2023-05-04T09:53:29.810Z,31.53
2023-05-04T09:56:39.107Z,32.35
2023-05-04T09:59:42.044Z,32.13
2023-05-04T10:02:45.328Z,31.62
2023-05-04T10:05:48.443Z,32.56
2023-05-04T10:08:51.503Z,32.67
2023-05-04T10:11:53.710Z,33.38
2023-05-04T10:14:56.006Z,32.81
2023-05-04T10:18:25.930Z,33.77
2023-05-04T10:21:54.740Z,33.29
2023-05-04T10:25:34.711Z,34.14
2023-05-04T10:28:39.714Z,33.93
2023-05-04T10:31:43.469Z,34.15
2023-05-04T10:34:45.854Z,34.88
2023-05-04T10:37:55.224Z,34.25
2023-05-04T10:40:57.506Z,33.50
2023-05-04T10:44:04.407Z,33.61
2023-05-04T10:47:07.946Z,33.60
2023-05-04T10:50:13.539Z,33.13
2023-05-04T10:53:17.203Z,32.67
2023-05-04T10:56:23.909Z,33.17
2023-05-04T10:59:26.130Z,33.31
2023-05-04T11:02:30.318Z,32.94
2023-05-04T11:05:45.116Z,33.81
2023-05-04T11:08:49.316Z,33.55
2023-05-04T11:11:53.256Z,33.51
2023-05-04T11:15:24.681Z,34.39
2023-05-04T11:18:31.175Z,34.51
2023-05-04T11:21:33.447Z,34.66
2023-05-04T11:24:45.995Z,34.90
2023-05-04T11:27:49.054Z,35.36
2023-05-04T11:30:56.052Z,35.45
2023-05-04T11:33:58.453Z,35.09
2023-05-04T11:37:00.753Z,34.78
2023-05-04T11:40:03.878Z,35.45
2023-05-04T11:43:09.774Z,35.27
2023-05-04T11:46:12.868Z,35.37
2023-05-04T11:49:15.390Z,35.54
2023-05-04T11:52:23.976Z,36.35
2023-05-04T11:55:27.855Z,36.39
2023-05-04T11:58:30.119Z,35.98
2023-05-04T12:01:35.358Z,37.46
2023-05-04T12:04:37.619Z,39.05
2023-05-04T12:07:39.854Z,38.95
2023-05-04T12:10:42.518Z,38.19
2023-05-04T12:13:45.053Z,37.65
2023-05-04T12:16:55.169Z,37.57
2023-05-04T12:19:57.468Z,37.30
2023-05-04T12:23:06.326Z,37.59
2023-05-04T12:26:09.003Z,36.76
2023-05-04T12:29:11.150Z,36.92
2023-05-04T12:32:13.489Z,36.39
2023-05-04T12:35:15.835Z,37.69
2023-05-04T12:38:18.070Z,37.64
2023-05-04T12:41:21.448Z,38.00
2023-05-04T12:44:23.724Z,37.69
2023-05-04T12:47:26.217Z,38.59
2023-05-04T12:50:28.467Z,38.12
2023-05-04T12:53:32.364Z,38.98
2023-05-04T12:56:34.782Z,40.26
2023-05-04T12:59:37.036Z,40.90
2023-05-04T13:02:39.375Z,40.89
2023-05-04T13:05:41.681Z,41.44
2023-05-04T13:08:44.583Z,41.69
2023-05-04T13:11:47.533Z,42.53
2023-05-04T13:14:50.985Z,41.69
2023-05-04T13:17:53.987Z,41.45
2023-05-04T13:20:56.785Z,41.10
2023-05-04T13:23:59.360Z,43.00
2023-05-04T13:27:02.949Z,44.91
2023-05-04T13:30:05.890Z,45.14
2023-05-04T13:33:20.746Z,44.96
2023-05-04T13:36:30.434Z,45.44
2023-05-04T13:39:39.761Z,45.29
2023-05-04T13:42:42.006Z,45.76
2023-05-04T13:45:44.220Z,45.62
2023-05-04T13:48:46.651Z,45.60
2023-05-04T13:51:48.851Z,45.24
2023-05-04T13:54:52.583Z,44.80
2023-05-04T13:57:55.392Z,45.19
2023-05-04T14:00:59.253Z,45.37
2023-05-04T14:04:01.628Z,44.81
2023-05-04T14:07:03.996Z,44.69
2023-05-04T14:10:06.846Z,44.71
2023-05-04T14:13:09.123Z,45.62
2023-05-04T14:16:11.481Z,45.37
2023-05-04T14:19:13.720Z,45.70
2023-05-04T14:22:16.006Z,45.97
2023-05-04T14:25:18.308Z,45.23
2023-05-04T14:28:21.216Z,45.06
2023-05-04T14:31:23.481Z,43.49
2023-05-04T14:34:28.598Z,43.19
2023-05-04T14:37:30.944Z,43.35
2023-05-04T14:40:33.330Z,42.43
2023-05-04T14:43:35.588Z,42.56
2023-05-04T14:46:37.799Z,42.05
2023-05-04T14:49:42.639Z,42.13
2023-05-04T14:52:45.056Z,41.58
2023-05-04T14:55:47.556Z,41.38
2023-05-04T14:58:49.809Z,41.59
2023-05-04T15:01:52.233Z,41.64
2023-05-04T15:04:54.508Z,41.35
2023-05-04T15:07:56.993Z,41.17
2023-05-04T15:10:59.602Z,41.06
2023-05-04T15:14:02.097Z,41.73
2023-05-04T15:17:05.113Z,41.74
2023-05-04T15:20:09.471Z,41.51
2023-05-04T15:23:12.066Z,41.61
2023-05-04T15:26:14.281Z,41.80
2023-05-04T15:29:16.583Z,41.72
2023-05-04T15:32:18.891Z,41.02
2023-05-04T15:35:21.375Z,41.58
2023-05-04T15:38:23.630Z,41.67
2023-05-04T15:41:26.424Z,41.69
2023-05-04T15:44:28.809Z,41.71
2023-05-04T15:47:32.097Z,42.25
2023-05-04T15:50:34.588Z,41.72
2023-05-04T15:53:36.955Z,42.02
2023-05-04T15:56:39.270Z,42.29
2023-05-04T15:59:41.834Z,42.16
2023-05-04T16:02:44.312Z,42.17
2023-05-04T16:05:46.666Z,41.96
2023-05-04T16:08:49.002Z,42.36
2023-05-04T16:11:51.256Z,42.16
2023-05-04T16:14:53.688Z,42.44
2023-05-04T16:17:56.170Z,42.09
2023-05-04T16:20:58.502Z,42.31
2023-05-04T16:24:00.780Z,42.38
2023-05-04T16:27:03.437Z,42.32
2023-05-04T16:30:06.292Z,41.69
2023-05-04T16:33:08.659Z,41.53
2023-05-04T16:36:11.149Z,42.05
2023-05-04T16:39:18.102Z,41.89
2023-05-04T16:42:21.851Z,42.27
2023-05-04T16:45:25.651Z,42.09
2023-05-04T16:48:27.873Z,42.12
2023-05-04T16:51:30.125Z,42.20
2023-05-04T16:54:32.407Z,42.16
2023-05-04T16:57:34.703Z,42.35
2023-05-04T17:00:37.051Z,42.01
2023-05-04T17:03:42.947Z,41.76
2023-05-04T17:06:46.214Z,42.03
2023-05-04T17:09:48.670Z,42.20
2023-05-04T17:12:55.353Z,42.56
2023-05-04T17:15:58.115Z,42.27
2023-05-04T17:19:00.595Z,42.65
2023-05-04T17:22:02.916Z,42.88
2023-05-04T17:25:05.788Z,43.06
2023-05-04T17:28:07.986Z,42.72
2023-05-04T17:31:11.768Z,43.26
2023-05-04T17:34:14.026Z,43.64
2023-05-04T17:37:16.232Z,44.24
2023-05-04T17:40:18.521Z,44.27
2023-05-04T17:43:21.074Z,44.21
2023-05-04T17:46:25.072Z,44.81
2023-05-04T17:49:27.521Z,45.15
2023-05-04T17:52:29.740Z,45.28
2023-05-04T17:55:32.006Z,45.31
2023-05-04T17:58:36.046Z,45.36
2023-05-04T18:01:38.483Z,45.32
2023-05-04T18:04:52.144Z,45.61
2023-05-04T18:08:03.579Z,45.38
2023-05-04T18:11:05.827Z,45.68
2023-05-04T18:14:08.067Z,45.62
2023-05-04T18:17:10.385Z,46.07
2023-05-04T18:20:13.265Z,45.97
2023-05-04T18:23:15.843Z,46.86
2023-05-04T18:26:19.664Z,46.59
2023-05-04T18:29:21.975Z,47.84
2023-05-04T18:32:24.526Z,47.27
2023-05-04T18:35:26.975Z,47.73
2023-05-04T18:38:29.240Z,47.39
2023-05-04T18:41:31.455Z,47.62
2023-05-04T18:44:33.676Z,47.93
2023-05-04T18:47:35.958Z,48.16
2023-05-04T18:50:38.236Z,48.36
2023-05-04T18:53:40.502Z,47.87
2023-05-04T18:56:43.529Z,47.61
2023-05-04T18:59:46.153Z,48.05
2023-05-04T19:02:48.609Z,48.03
2023-05-04T19:05:51.698Z,48.62
2023-05-04T19:08:53.974Z,48.90
2023-05-04T19:11:56.320Z,48.82
2023-05-04T19:14:59.295Z,49.09
2023-05-04T19:18:01.680Z,49.60
2023-05-04T19:21:05.757Z,49.26
2023-05-04T19:24:10.052Z,50.13
2023-05-04T19:27:12.259Z,50.25
2023-05-04T19:30:15.010Z,49.98
2023-05-04T19:33:17.494Z,50.73
2023-05-04T19:36:19.739Z,50.68
2023-05-04T19:39:22.020Z,50.25
2023-05-04T19:42:24.302Z,50.62
2023-05-04T19:45:26.561Z,50.74
2023-05-04T19:48:28.785Z,50.96
2023-05-04T19:51:31.456Z,50.09
2023-05-04T19:54:34.064Z,50.56
2023-05-04T19:57:36.670Z,49.84
2023-05-04T20:00:38.998Z,50.74
2023-05-04T20:03:41.288Z,51.65
2023-05-04T20:06:43.607Z,51.48
2023-05-04T20:09:45.891Z,51.98
2023-05-04T20:12:48.286Z,52.52
2023-05-04T20:15:52.077Z,52.37
2023-05-04T20:18:54.299Z,51.84
2023-05-04T20:21:56.562Z,53.05
2023-05-04T20:24:59.097Z,53.00
2023-05-04T20:28:01.334Z,53.28
2023-05-04T20:31:03.571Z,53.50
2023-05-04T20:34:05.976Z,53.37
2023-05-04T20:37:08.197Z,53.98
2023-05-04T20:40:11.041Z,53.80
2023-05-04T20:43:13.178Z,54.04
2023-05-04T20:46:15.338Z,54.41
2023-05-04T20:49:17.675Z,53.81
2023-05-04T20:52:19.954Z,53.90
2023-05-04T20:55:22.358Z,53.51
2023-05-04T20:58:24.555Z,53.22
2023-05-04T21:01:26.951Z,52.63
2023-05-04T21:04:29.227Z,52.09
2023-05-04T21:07:31.756Z,52.49
2023-05-04T21:10:34.090Z,52.46
2023-05-04T21:13:36.317Z,52.88
2023-05-04T21:16:38.687Z,52.32
2023-05-04T21:19:40.924Z,52.72
2023-05-04T21:22:43.325Z,52.91
2023-05-04T21:25:45.558Z,52.97
2023-05-04T21:28:47.822Z,52.76
2023-05-04T21:31:50.272Z,53.21
2023-05-04T21:34:53.032Z,53.13
2023-05-04T21:37:55.279Z,51.72
2023-05-04T21:40:57.541Z,49.73
2023-05-04T21:43:59.800Z,49.16
2023-05-04T21:47:02.149Z,48.10
2023-05-04T21:50:05.258Z,46.38
2023-05-04T21:53:07.553Z,45.85
2023-05-04T21:56:10.350Z,45.05
2023-05-04T21:59:12.499Z,44.19
2023-05-04T22:02:14.654Z,43.20
2023-05-04T22:05:18.141Z,42.71
2023-05-04T22:08:21.672Z,43.00
2023-05-04T22:11:23.954Z,43.21
2023-05-04T22:14:26.298Z,43.38
2023-05-04T22:17:28.513Z,42.26
2023-05-04T22:20:30.817Z,42.10
2023-05-04T22:23:33.036Z,41.84
2023-05-04T22:26:35.642Z,41.20
2023-05-04T22:29:37.978Z,41.91
2023-05-04T22:32:40.372Z,41.40
2023-05-04T22:35:42.713Z,41.37
2023-05-04T22:38:44.943Z,41.22
2023-05-04T22:41:47.163Z,41.01
2023-05-04T22:44:49.404Z,41.66
2023-05-04T22:47:52.010Z,40.22
2023-05-04T22:50:55.061Z,40.92
2023-05-04T22:53:57.264Z,40.73
2023-05-04T22:56:59.472Z,40.16
2023-05-04T23:00:01.824Z,40.50
2023-05-04T23:03:04.369Z,39.96
2023-05-04T23:06:08.676Z,40.26
2023-05-04T23:09:11.737Z,40.29
2023-05-04T23:12:15.169Z,41.15
2023-05-04T23:15:18.352Z,40.55
2023-05-04T23:18:20.701Z,40.55
2023-05-04T23:21:22.963Z,40.81
2023-05-04T23:24:25.523Z,41.17
2023-05-04T23:27:27.771Z,40.27
2023-05-04T23:30:30.045Z,40.61
2023-05-04T23:33:32.309Z,40.59
2023-05-04T23:36:34.589Z,40.96
2023-05-04T23:39:36.818Z,40.22
2023-05-04T23:42:39.076Z,40.95
2023-05-04T23:45:41.305Z,41.33
2023-05-04T23:48:44.948Z,40.87
2023-05-04T23:51:47.201Z,40.86
2023-05-04T23:54:53.587Z,40.85
2023-05-04T23:57:55.791Z,41.02
